Time;durP1;ratioP1;P1;durP2;ratioP2;P2;SDS_P1;SDS_P2;PMS_P1;PMS_P2;Temp;Humidity;BMP_temperature;BMP_pressure;BME280_temperature;BME280_humidity;BME280_pressure;Samples;Min_cycle;Max_cycle;Signal;HPM_P1;HPM_P2
2021/05/12 00:02:24;;;;;;;15.10;10.10;;;;;;;;;;5136801;28;20454;-70
2021/05/12 00:04:52;;;;;;;17.67;9.00;;;;;;;;;;5136953;28;20454;-70
2021/05/12 00:07:20;;;;;;;13.70;9.23;;;;;;;;;;5137239;28;20748;-71
2021/05/12 00:09:47;;;;;;;17.10;10.00;;;;;;;;;;5136958;28;20450;-69
2021/05/12 00:12:15;;;;;;;14.40;9.57;;;;;;;;;;5137270;27;20549;-71
2021/05/12 00:14:42;;;;;;;17.47;9.23;;;;;;;;;;5137638;28;20461;-71
2021/05/12 00:17:11;;;;;;;14.80;10.23;;;;;;;;;;5139291;27;20849;-71
2021/05/12 00:19:40;;;;;;;13.50;8.00;;;;;;;;;;5141067;27;20682;-70
2021/05/12 00:22:19;;;;;;;11.90;8.93;;;;;;;;;;5141203;27;20454;-70
2021/05/12 00:24:47;;;;;;;15.07;9.17;;;;;;;;;;5141495;27;20476;-70
2021/05/12 00:27:15;;;;;;;12.40;10.10;;;;;;;;;;5141523;27;20450;-70
2021/05/12 00:29:42;;;;;;;13.53;8.90;;;;;;;;;;5141087;27;20458;-71
2021/05/12 00:32:10;;;;;;;12.03;8.90;;;;;;;;;;5141444;27;20464;-71
2021/05/12 00:34:38;;;;;;;14.83;9.30;;;;;;;;;;5141203;27;20460;-71
2021/05/12 00:37:05;;;;;;;12.23;8.40;;;;;;;;;;5141135;27;20489;-71
2021/05/12 00:39:33;;;;;;;13.67;9.40;;;;;;;;;;5142525;27;20737;-71
2021/05/12 00:42:02;;;;;;;12.70;7.43;;;;;;;;;;5141456;27;20454;-70
2021/05/12 00:44:30;;;;;;;13.03;7.20;;;;;;;;;;5140224;27;20447;-71
2021/05/12 00:46:57;;;;;;;13.80;9.63;;;;;;;;;;5141118;27;20450;-70
2021/05/12 00:49:25;;;;;;;10.90;7.97;;;;;;;;;;5140859;27;20442;-71
2021/05/12 00:51:52;;;;;;;11.20;7.83;;;;;;;;;;5140609;27;20464;-70
2021/05/12 00:54:19;;;;;;;11.57;7.90;;;;;;;;;;5140308;27;20521;-71
2021/05/12 00:56:47;;;;;;;9.80;7.47;;;;;;;;;;5140110;27;20925;-70
2021/05/12 00:59:15;;;;;;;9.87;7.43;;;;;;;;;;5140669;27;20450;-70
2021/05/12 01:01:42;;;;;;;13.93;8.20;;;;;;;;;;5140864;27;20694;-70
2021/05/12 01:04:10;;;;;;;15.10;8.07;;;;;;;;;;5140157;27;20553;-70
2021/05/12 01:06:38;;;;;;;12.00;7.90;;;;;;;;;;5139985;27;20469;-71
2021/05/12 01:09:08;;;;;;;11.63;8.40;;;;;;;;;;5139796;27;20461;-70
2021/05/12 01:11:35;;;;;;;10.70;8.37;;;;;;;;;;5139814;27;20458;-70
2021/05/12 01:14:03;;;;;;;12.27;7.70;;;;;;;;;;5139987;27;20460;-71
2021/05/12 01:16:31;;;;;;;12.27;8.37;;;;;;;;;;5140129;27;20505;-71
2021/05/12 01:18:59;;;;;;;11.20;7.17;;;;;;;;;;5140013;27;20446;-71
2021/05/12 01:21:27;;;;;;;12.80;8.77;;;;;;;;;;5139532;27;20949;-69
2021/05/12 01:23:54;;;;;;;10.77;8.50;;;;;;;;;;5140016;27;20529;-71
2021/05/12 01:26:27;;;;;;;14.13;7.90;;;;;;;;;;5139729;27;20458;-71
2021/05/12 01:29:05;;;;;;;13.30;8.57;;;;;;;;;;5138752;27;20742;-71
2021/05/12 01:31:39;;;;;;;11.27;8.10;;;;;;;;;;5139835;27;20461;-71
2021/05/12 01:34:10;;;;;;;9.20;7.50;;;;;;;;;;5140195;27;20462;-70
2021/05/12 01:36:38;;;;;;;12.33;8.70;;;;;;;;;;5139295;27;20553;-71
2021/05/12 01:39:13;;;;;;;10.93;8.80;;;;;;;;;;5139190;27;20557;-71
2021/05/12 01:41:44;;;;;;;11.50;8.77;;;;;;;;;;5139609;27;20480;-71
2021/05/12 01:44:13;;;;;;;10.90;7.43;;;;;;;;;;5139552;27;20746;-71
2021/05/12 01:46:50;;;;;;;13.80;8.90;;;;;;;;;;5139496;27;20497;-71
2021/05/12 01:49:25;;;;;;;11.30;8.37;;;;;;;;;;5138790;27;20545;-70
2021/05/12 01:52:09;;;;;;;10.20;7.97;;;;;;;;;;5139426;27;20940;-71
2021/05/12 01:54:36;;;;;;;14.77;10.20;;;;;;;;;;5139287;27;20496;-71
2021/05/12 01:57:03;;;;;;;12.97;8.70;;;;;;;;;;5138208;27;20490;-71
2021/05/12 01:59:30;;;;;;;13.80;8.20;;;;;;;;;;5138460;27;20485;-72
2021/05/12 02:01:57;;;;;;;13.43;8.33;;;;;;;;;;5139046;27;20481;-70
2021/05/12 02:07:31;;;;;;;11.20;9.30;;;;;;;;;;5138280;27;20829;-70
2021/05/12 02:09:58;;;;;;;10.93;8.90;;;;;;;;;;5138677;27;20450;-70
2021/05/12 02:12:25;;;;;;;12.97;8.43;;;;;;;;;;5138889;27;20457;-70
2021/05/12 02:14:52;;;;;;;12.13;7.97;;;;;;;;;;5138968;27;20508;-70
2021/05/12 02:17:19;;;;;;;13.00;9.00;;;;;;;;;;5138023;27;20838;-70
2021/05/12 02:19:47;;;;;;;10.00;8.33;;;;;;;;;;5139082;27;20798;-70
2021/05/12 02:22:17;;;;;;;10.90;8.50;;;;;;;;;;5139030;27;20519;-70
2021/05/12 02:24:45;;;;;;;9.80;7.63;;;;;;;;;;5138866;27;20435;-70
2021/05/12 02:27:12;;;;;;;13.53;9.73;;;;;;;;;;5138826;27;20502;-70
2021/05/12 02:29:39;;;;;;;12.00;9.30;;;;;;;;;;5138428;27;20494;-70
2021/05/12 02:32:07;;;;;;;19.93;9.40;;;;;;;;;;5138162;27;20619;-70
2021/05/12 02:34:34;;;;;;;11.53;8.40;;;;;;;;;;5137823;27;20446;-70
2021/05/12 02:37:01;;;;;;;12.93;8.43;;;;;;;;;;5138858;27;20818;-70
2021/05/12 02:39:29;;;;;;;13.37;9.00;;;;;;;;;;5138392;27;20458;-70
2021/05/12 02:41:57;;;;;;;14.13;8.50;;;;;;;;;;5138505;27;20461;-70
2021/05/12 02:44:25;;;;;;;12.70;8.13;;;;;;;;;;5138645;27;20537;-69
2021/05/12 02:46:52;;;;;;;11.87;8.47;;;;;;;;;;5138355;27;20889;-70
2021/05/12 02:49:26;;;;;;;13.07;8.33;;;;;;;;;;5138834;27;20937;-70
2021/05/12 02:51:53;;;;;;;13.70;8.57;;;;;;;;;;5138846;27;20869;-70
2021/05/12 02:54:23;;;;;;;12.90;8.67;;;;;;;;;;5137639;27;20914;-71
2021/05/12 02:56:50;;;;;;;13.93;8.80;;;;;;;;;;5137639;27;20529;-70
2021/05/12 02:59:18;;;;;;;11.47;9.10;;;;;;;;;;5137961;27;20457;-70
2021/05/12 03:01:46;;;;;;;14.30;7.83;;;;;;;;;;5137534;27;20557;-70
2021/05/12 03:04:13;;;;;;;9.83;7.90;;;;;;;;;;5138104;27;20949;-70
2021/05/12 03:06:40;;;;;;;12.90;8.97;;;;;;;;;;5137982;27;20594;-70
2021/05/12 03:09:08;;;;;;;11.60;8.30;;;;;;;;;;5137700;27;20526;-70
2021/05/12 03:11:36;;;;;;;13.00;8.20;;;;;;;;;;5137378;27;20457;-71
2021/05/12 03:14:04;;;;;;;8.97;7.13;;;;;;;;;;5137854;27;20526;-71
2021/05/12 03:16:33;;;;;;;10.23;7.73;;;;;;;;;;5137661;27;20870;-71
2021/05/12 03:19:01;;;;;;;10.60;8.00;;;;;;;;;;5137593;27;20525;-71
2021/05/12 03:21:29;;;;;;;8.17;7.00;;;;;;;;;;5137476;27;20446;-70
2021/05/12 03:23:56;;;;;;;12.47;7.80;;;;;;;;;;5137163;27;20779;-71
2021/05/12 03:26:23;;;;;;;11.27;8.17;;;;;;;;;;5137841;27;20442;-71
2021/05/12 03:28:51;;;;;;;10.53;7.53;;;;;;;;;;5137253;27;20549;-71
2021/05/12 03:31:18;;;;;;;10.90;7.80;;;;;;;;;;5137734;27;20495;-71
2021/05/12 03:33:46;;;;;;;14.87;7.73;;;;;;;;;;5137239;27;20465;-71
2021/05/12 03:36:14;;;;;;;16.77;8.23;;;;;;;;;;5137530;27;20454;-71
2021/05/12 03:38:41;;;;;;;11.33;8.53;;;;;;;;;;5137379;27;20496;-71
2021/05/12 03:41:09;;;;;;;12.30;6.97;;;;;;;;;;5137955;27;20439;-71
2021/05/12 03:43:36;;;;;;;10.73;7.80;;;;;;;;;;5137064;27;20461;-71
2021/05/12 03:46:03;;;;;;;12.13;8.53;;;;;;;;;;5137075;27;20824;-72
2021/05/12 03:48:31;;;;;;;13.27;8.50;;;;;;;;;;5136971;28;20457;-71
2021/05/12 03:50:59;;;;;;;11.07;7.00;;;;;;;;;;5138385;27;20473;-71
2021/05/12 03:53:30;;;;;;;11.63;9.17;;;;;;;;;;5143737;27;20807;-71
2021/05/12 03:55:57;;;;;;;12.60;7.60;;;;;;;;;;5142656;27;20514;-71
2021/05/12 03:58:24;;;;;;;13.50;8.57;;;;;;;;;;5143248;27;20585;-71
2021/05/12 04:00:52;;;;;;;13.10;9.00;;;;;;;;;;5142981;27;20446;-71
2021/05/12 04:03:19;;;;;;;16.20;9.40;;;;;;;;;;5143018;27;20525;-71
2021/05/12 04:05:46;;;;;;;14.47;8.90;;;;;;;;;;5142927;27;20458;-71
2021/05/12 04:08:17;;;;;;;15.87;9.27;;;;;;;;;;5142147;27;20443;-71
2021/05/12 04:10:44;;;;;;;14.43;9.43;;;;;;;;;;5144028;27;20497;-71
2021/05/12 04:13:12;;;;;;;15.70;9.40;;;;;;;;;;5128946;27;20894;-71
2021/05/12 04:15:43;;;;;;;12.67;9.60;;;;;;;;;;5143074;27;20548;-71
2021/05/12 04:18:14;;;;;;;12.33;7.97;;;;;;;;;;5124710;27;20543;-71
2021/05/12 04:20:42;;;;;;;14.47;9.13;;;;;;;;;;5122885;28;20469;-70
2021/05/12 04:23:09;;;;;;;18.30;12.23;;;;;;;;;;5123071;28;20458;-71
2021/05/12 04:25:38;;;;;;;11.57;9.13;;;;;;;;;;5122416;28;20513;-71
2021/05/12 04:28:06;;;;;;;18.17;10.27;;;;;;;;;;5122909;28;20443;-71
2021/05/12 04:30:37;;;;;;;15.17;10.80;;;;;;;;;;5122152;28;20730;-71
2021/05/12 04:33:04;;;;;;;15.77;9.90;;;;;;;;;;5122219;28;20904;-71
2021/05/12 04:35:31;;;;;;;12.93;9.10;;;;;;;;;;5121432;28;20780;-71
2021/05/12 04:37:59;;;;;;;24.23;8.87;;;;;;;;;;5121889;28;20478;-71
2021/05/12 04:40:27;;;;;;;13.00;9.27;;;;;;;;;;5122673;28;20450;-72
2021/05/12 04:42:57;;;;;;;13.00;9.40;;;;;;;;;;5122949;28;20771;-72
2021/05/12 04:45:25;;;;;;;12.97;9.13;;;;;;;;;;5122822;28;20734;-71
2021/05/12 04:47:57;;;;;;;14.47;8.83;;;;;;;;;;5122624;28;20924;-71
2021/05/12 04:50:37;;;;;;;12.93;9.60;;;;;;;;;;5122083;28;20459;-71
2021/05/12 04:53:05;;;;;;;12.63;9.33;;;;;;;;;;5121764;28;20718;-71
2021/05/12 04:55:37;;;;;;;15.10;9.23;;;;;;;;;;5122840;28;20878;-71
2021/05/12 04:58:06;;;;;;;13.20;9.47;;;;;;;;;;5122526;28;20487;-71
2021/05/12 05:00:33;;;;;;;15.00;9.70;;;;;;;;;;5121994;28;20455;-71
2021/05/12 05:03:03;;;;;;;13.57;8.43;;;;;;;;;;5119025;28;21072;-71
2021/05/12 05:05:31;;;;;;;15.80;9.80;;;;;;;;;;5118877;28;20478;-70
2021/05/12 05:07:59;;;;;;;10.73;9.07;;;;;;;;;;5119693;28;20497;-71
2021/05/12 05:10:27;;;;;;;15.50;9.23;;;;;;;;;;5118847;28;20466;-71
2021/05/12 05:12:55;;;;;;;17.20;10.20;;;;;;;;;;5118459;28;20544;-71
2021/05/12 05:15:23;;;;;;;14.47;10.40;;;;;;;;;;5118085;28;20897;-71
2021/05/12 05:17:51;;;;;;;14.20;9.00;;;;;;;;;;5117847;28;20513;-71
2021/05/12 05:20:21;;;;;;;14.60;8.47;;;;;;;;;;5117693;28;20466;-71
2021/05/12 05:22:52;;;;;;;16.00;9.90;;;;;;;;;;5117376;28;20534;-71
2021/05/12 05:25:19;;;;;;;14.57;10.17;;;;;;;;;;5116292;28;20458;-71
2021/05/12 05:27:47;;;;;;;13.77;8.33;;;;;;;;;;5116564;28;20692;-70
2021/05/12 05:30:16;;;;;;;17.93;11.03;;;;;;;;;;5117337;28;20467;-71
2021/05/12 05:32:44;;;;;;;11.80;9.03;;;;;;;;;;5116602;28;20454;-71
2021/05/12 05:35:12;;;;;;;15.80;8.37;;;;;;;;;;5116069;28;20594;-70
2021/05/12 05:37:40;;;;;;;12.87;8.30;;;;;;;;;;5114134;28;20485;-70
2021/05/12 05:40:09;;;;;;;10.00;7.80;;;;;;;;;;5114736;28;20874;-71
2021/05/12 05:42:40;;;;;;;12.90;9.03;;;;;;;;;;5120489;27;20458;-71
2021/05/12 05:45:09;;;;;;;12.47;8.93;;;;;;;;;;5137642;27;20454;-71
2021/05/12 05:47:37;;;;;;;10.60;8.43;;;;;;;;;;5136469;27;20868;-71
2021/05/12 05:50:07;;;;;;;12.27;8.10;;;;;;;;;;5137329;27;20457;-71
2021/05/12 05:52:34;;;;;;;11.40;8.60;;;;;;;;;;5136393;27;20486;-71
2021/05/12 05:55:03;;;;;;;13.80;7.83;;;;;;;;;;5137227;27;20476;-71
2021/05/12 05:57:31;;;;;;;11.83;8.13;;;;;;;;;;5137568;27;20486;-71
2021/05/12 06:00:00;;;;;;;13.17;8.17;;;;;;;;;;5136589;27;20463;-72
2021/05/12 06:02:27;;;;;;;11.00;8.57;;;;;;;;;;5137129;27;20450;-71
2021/05/12 06:04:57;;;;;;;10.13;7.40;;;;;;;;;;5137028;27;20492;-71
2021/05/12 06:07:26;;;;;;;10.77;7.70;;;;;;;;;;5136956;27;20509;-71
2021/05/12 06:09:53;;;;;;;14.53;8.10;;;;;;;;;;5134882;27;20806;-71
2021/05/12 06:12:21;;;;;;;13.70;6.77;;;;;;;;;;5136992;27;20664;-72
2021/05/12 06:14:48;;;;;;;13.00;7.37;;;;;;;;;;5134126;27;20469;-72
2021/05/12 06:17:16;;;;;;;13.70;8.43;;;;;;;;;;5134912;27;20449;-72
2021/05/12 06:19:44;;;;;;;10.60;7.13;;;;;;;;;;5135790;27;20873;-71
2021/05/12 06:22:11;;;;;;;13.60;8.50;;;;;;;;;;5135704;27;20755;-71
2021/05/12 06:24:42;;;;;;;10.70;7.63;;;;;;;;;;5136169;27;20461;-72
2021/05/12 06:27:11;;;;;;;12.67;8.37;;;;;;;;;;5136591;27;20472;-72
2021/05/12 06:29:42;;;;;;;12.10;9.20;;;;;;;;;;5135233;27;20472;-72
2021/05/12 06:32:11;;;;;;;11.17;7.63;;;;;;;;;;5135613;27;20446;-70
2021/05/12 06:34:44;;;;;;;10.80;7.57;;;;;;;;;;5135111;27;21053;-71
2021/05/12 06:37:14;;;;;;;12.00;8.03;;;;;;;;;;5134716;27;20855;-70
2021/05/12 06:39:45;;;;;;;10.33;7.53;;;;;;;;;;5131699;27;20447;-70
2021/05/12 06:42:16;;;;;;;13.70;7.23;;;;;;;;;;5136695;27;20833;-71
2021/05/12 06:44:48;;;;;;;9.90;7.60;;;;;;;;;;5134650;27;20751;-70
2021/05/12 06:47:19;;;;;;;12.70;8.70;;;;;;;;;;5136214;27;20454;-69
2021/05/12 06:49:50;;;;;;;10.17;8.30;;;;;;;;;;5135965;27;20475;-72
2021/05/12 06:52:18;;;;;;;12.67;7.60;;;;;;;;;;5126608;27;20746;-71
2021/05/12 06:54:48;;;;;;;14.03;8.07;;;;;;;;;;5129676;27;20468;-72
2021/05/12 06:57:17;;;;;;;11.07;8.23;;;;;;;;;;5136227;27;20438;-71
2021/05/12 06:59:46;;;;;;;11.50;8.17;;;;;;;;;;5135507;27;20533;-71
2021/05/12 07:02:14;;;;;;;11.97;6.57;;;;;;;;;;5135800;27;20722;-72
2021/05/12 07:04:44;;;;;;;11.90;7.67;;;;;;;;;;5136328;27;20443;-72
2021/05/12 07:07:33;;;;;;;11.63;8.03;;;;;;;;;;5136537;27;20532;-72
2021/05/12 07:10:03;;;;;;;14.70;9.10;;;;;;;;;;5135977;27;20530;-71
2021/05/12 07:12:32;;;;;;;13.80;9.70;;;;;;;;;;5136845;27;20866;-71
2021/05/12 07:15:00;;;;;;;12.23;9.27;;;;;;;;;;5136421;27;20774;-71
2021/05/12 07:17:34;;;;;;;11.80;8.60;;;;;;;;;;5135277;27;20506;-70
2021/05/12 07:20:05;;;;;;;15.00;10.80;;;;;;;;;;5134422;27;20443;-71
2021/05/12 07:22:33;;;;;;;15.77;9.50;;;;;;;;;;5134917;27;20465;-71
2021/05/12 07:25:01;;;;;;;17.57;10.30;;;;;;;;;;5134408;27;20893;-72
2021/05/12 07:27:38;;;;;;;13.70;10.60;;;;;;;;;;5135701;27;20446;-71
2021/05/12 07:30:07;;;;;;;12.63;10.40;;;;;;;;;;5130416;27;20517;-71
2021/05/12 07:32:35;;;;;;;14.40;9.83;;;;;;;;;;5135129;27;20454;-72
2021/05/12 07:35:02;;;;;;;12.33;10.20;;;;;;;;;;5134745;27;20478;-70
2021/05/12 07:37:30;;;;;;;18.77;10.83;;;;;;;;;;5135639;27;20493;-70
2021/05/12 07:39:58;;;;;;;13.33;10.30;;;;;;;;;;5146434;27;20453;-71
2021/05/12 07:42:26;;;;;;;15.17;11.27;;;;;;;;;;5155444;27;20478;-71
2021/05/12 07:44:55;;;;;;;17.23;10.23;;;;;;;;;;5155802;27;20500;-71
2021/05/12 07:47:22;;;;;;;19.30;12.13;;;;;;;;;;5155648;27;20452;-71
2021/05/12 07:49:53;;;;;;;14.37;11.20;;;;;;;;;;5138175;27;20439;-69
2021/05/12 07:52:22;;;;;;;14.73;9.70;;;;;;;;;;5134968;28;20450;-70
2021/05/12 07:54:50;;;;;;;12.93;10.40;;;;;;;;;;5134594;28;20457;-72
2021/05/12 07:57:18;;;;;;;14.27;10.20;;;;;;;;;;5130973;28;20447;-71
2021/05/12 07:59:46;;;;;;;14.27;11.23;;;;;;;;;;5133464;28;20480;-72
2021/05/12 08:02:15;;;;;;;13.47;10.77;;;;;;;;;;5129594;27;20473;-71
2021/05/12 08:04:44;;;;;;;12.73;10.23;;;;;;;;;;5130235;27;20456;-71
2021/05/12 08:07:13;;;;;;;13.50;10.30;;;;;;;;;;5127803;27;20488;-71
2021/05/12 08:09:41;;;;;;;15.00;11.30;;;;;;;;;;5122527;28;20451;-71
2021/05/12 08:12:13;;;;;;;15.10;11.93;;;;;;;;;;5134163;28;20464;-70
2021/05/12 08:14:42;;;;;;;14.17;10.27;;;;;;;;;;5128260;28;20435;-71
2021/05/12 08:17:11;;;;;;;14.23;9.40;;;;;;;;;;5134520;28;20454;-70
2021/05/12 08:19:43;;;;;;;12.60;9.33;;;;;;;;;;5115491;28;20447;-70
2021/05/12 08:22:15;;;;;;;11.23;8.43;;;;;;;;;;5136196;28;20783;-71
2021/05/12 08:24:47;;;;;;;12.37;10.40;;;;;;;;;;5134059;28;20538;-71
2021/05/12 08:27:16;;;;;;;15.80;9.80;;;;;;;;;;5134573;28;20568;-71
2021/05/12 08:29:44;;;;;;;15.27;9.60;;;;;;;;;;5135091;28;20842;-70
2021/05/12 08:32:15;;;;;;;14.40;10.03;;;;;;;;;;5135487;28;20469;-70
2021/05/12 08:35:17;;;;;;;14.50;10.47;;;;;;;;;;5135072;28;20730;-70
2021/05/12 08:38:11;;;;;;;13.27;9.23;;;;;;;;;;5136830;27;20905;-71
2021/05/12 08:40:42;;;;;;;12.47;9.93;;;;;;;;;;5118314;28;20508;-72
2021/05/12 08:43:13;;;;;;;12.63;9.30;;;;;;;;;;5129986;27;21101;-70
2021/05/12 08:45:45;;;;;;;16.80;13.70;;;;;;;;;;5131188;27;20454;-70
2021/05/12 08:48:15;;;;;;;13.87;9.10;;;;;;;;;;5111847;28;20522;-70
2021/05/12 08:50:43;;;;;;;14.50;8.83;;;;;;;;;;5118696;28;20447;-70
2021/05/12 08:53:10;;;;;;;16.40;9.40;;;;;;;;;;5137743;27;20454;-71
2021/05/12 08:55:42;;;;;;;12.20;9.23;;;;;;;;;;5135719;27;20915;-70
2021/05/12 08:58:35;;;;;;;12.30;9.33;;;;;;;;;;5129854;27;20470;-70
2021/05/12 09:01:06;;;;;;;13.17;10.17;;;;;;;;;;5137186;27;20468;-71
2021/05/12 09:03:48;;;;;;;11.80;9.43;;;;;;;;;;5138168;27;20446;-71
2021/05/12 09:06:28;;;;;;;16.77;11.60;;;;;;;;;;5127388;27;20451;-71
2021/05/12 09:08:59;;;;;;;15.60;10.03;;;;;;;;;;5130145;27;20720;-70
2021/05/12 09:11:56;;;;;;;10.33;9.33;;;;;;;;;;5118028;28;20443;-71
2021/05/12 09:17:45;;;;;;;14.43;8.83;;;;;;;;;;5052294;28;20567;-71
2021/05/12 09:23:57;;;;;;;;;;;;;;;;;;;;;
2021/05/12 09:26:48;;;;;;;10.97;7.90;;;;;;;;;;5129882;27;20732;-70
2021/05/12 09:29:22;;;;;;;11.40;7.50;;;;;;;;;;5116984;28;20458;-71
2021/05/12 09:31:57;;;;;;;11.33;6.70;;;;;;;;;;5136827;27;20473;-71
2021/05/12 09:34:49;;;;;;;11.67;7.77;;;;;;;;;;5118477;27;20450;-71
2021/05/12 09:37:34;;;;;;;13.43;7.27;;;;;;;;;;5136804;27;20881;-70
2021/05/12 09:40:06;;;;;;;8.60;6.73;;;;;;;;;;5119507;27;20504;-71
2021/05/12 09:42:35;;;;;;;9.70;7.43;;;;;;;;;;5137619;27;20450;-70
2021/05/12 09:45:16;;;;;;;12.27;7.40;;;;;;;;;;5128577;27;20460;-72
2021/05/12 09:47:53;;;;;;;8.70;6.47;;;;;;;;;;5136143;27;20438;-71
2021/05/12 09:50:36;;;;;;;11.67;7.33;;;;;;;;;;5128909;27;20696;-70
2021/05/12 09:53:11;;;;;;;21.30;8.30;;;;;;;;;;5137100;27;20464;-71
2021/05/12 09:55:46;;;;;;;13.97;7.53;;;;;;;;;;5137189;27;20461;-70
2021/05/12 09:58:21;;;;;;;10.87;7.17;;;;;;;;;;5138419;27;20481;-70
2021/05/12 10:01:01;;;;;;;12.67;7.20;;;;;;;;;;5136376;27;20465;-71
2021/05/12 10:04:01;;;;;;;12.47;7.53;;;;;;;;;;5137437;27;20530;-70
2021/05/12 10:06:33;;;;;;;11.90;7.50;;;;;;;;;;5123107;27;20475;-70
2021/05/12 10:09:17;;;;;;;10.83;6.73;;;;;;;;;;5135594;27;20848;-70
2021/05/12 10:12:01;;;;;;;11.50;6.77;;;;;;;;;;5137254;27;20743;-72
2021/05/12 10:14:33;;;;;;;9.53;6.07;;;12.80;99.90;;;;;;5136035;27;20442;-71
2021/05/12 10:17:02;;;;;;;9.43;7.20;;;13.70;99.90;;;;;;5136848;27;20454;-71
2021/05/12 10:19:34;;;;;;;10.37;6.87;;;13.60;99.90;;;;;;5136633;27;20478;-71
2021/05/12 10:22:04;;;;;;;8.30;6.60;;;13.70;99.90;;;;;;5133777;27;20906;-71
2021/05/12 10:24:41;;;;;;;10.50;7.73;;;13.60;99.90;;;;;;5127493;27;20456;-72
2021/05/12 10:27:15;;;;;;;9.90;6.80;;;13.70;99.90;;;;;;5136677;27;20931;-73
2021/05/12 10:29:50;;;;;;;16.53;6.00;;;13.70;99.90;;;;;;5137025;27;20458;-73
2021/05/12 10:32:33;;;;;;;9.17;6.60;;;13.70;99.90;;;;;;5129518;27;20552;-72
2021/05/12 10:35:14;;;;;;;15.07;6.83;;;13.80;99.90;;;;;;5127589;27;20450;-72
2021/05/12 10:38:31;;;;;;;9.90;5.87;;;14.00;99.90;;;;;;5116302;28;20455;-72
2021/05/12 10:41:24;;;;;;;9.00;7.13;;;14.00;99.90;;;;;;5116615;28;20455;-71
2021/05/12 10:43:54;;;;;;;7.50;6.10;;;14.00;99.90;;;;;;5116545;28;20529;-70
2021/05/12 10:46:30;;;;;;;8.03;5.13;;;14.00;99.90;;;;;;5115706;28;20800;-70
2021/05/12 10:49:09;;;;;;;9.30;6.03;;;14.10;99.90;;;;;;5120740;27;20752;-70
2021/05/12 10:51:52;;;;;;;8.90;6.13;;;14.50;99.90;;;;;;5132959;27;20469;-73
2021/05/12 10:54:49;;;;;;;8.30;4.77;;;14.70;99.90;;;;;;5124471;27;20479;-71
2021/05/12 10:57:52;;;;;;;9.30;4.70;;;14.50;99.90;;;;;;5120646;27;20465;-71
2021/05/12 11:00:23;;;;;;;8.83;5.10;;;14.50;99.90;;;;;;5129612;27;20504;-69
2021/05/12 11:03:02;;;;;;;8.23;4.93;;;14.60;99.90;;;;;;5147001;27;20591;-70
2021/05/12 11:06:10;;;;;;;8.50;4.60;;;14.30;99.90;;;;;;5139811;27;20457;-73
2021/05/12 11:09:05;;;;;;;7.10;5.30;;;14.20;99.90;;;;;;5114810;28;20539;-71
2021/05/12 11:11:54;;;;;;;7.10;4.93;;;14.20;99.90;;;;;;5114842;28;20775;-71
2021/05/12 11:14:28;;;;;;;8.77;4.90;;;14.10;99.90;;;;;;5115727;28;20443;-72
2021/05/12 11:17:02;;;;;;;8.50;4.47;;;14.40;99.90;;;;;;5115469;28;20474;-73
2021/05/12 11:19:54;;;;;;;9.87;4.90;;;14.50;99.90;;;;;;5123433;27;20572;-72
2021/05/12 11:22:43;;;;;;;10.70;4.67;;;14.40;99.90;;;;;;5131597;27;20548;-71
2021/05/12 11:25:22;;;;;;;6.10;4.67;;;14.20;99.90;;;;;;5135979;27;20454;-71
2021/05/12 11:31:30;;;;;;;6.20;4.53;;;14.40;99.90;;;;;;5134566;27;20698;-72
2021/05/12 11:34:01;;;;;;;6.00;4.17;;;14.20;99.90;;;;;;5135773;27;20441;-72
2021/05/12 11:36:40;;;;;;;11.20;4.70;;;14.20;99.90;;;;;;5136071;27;20559;-72
2021/05/12 11:39:10;;;;;;;6.07;4.10;;;14.20;99.90;;;;;;5135430;27;20470;-72
2021/05/12 11:41:38;;;;;;;7.30;3.50;;;14.40;99.90;;;;;;5136304;27;20454;-72
2021/05/12 11:44:08;;;;;;;7.17;3.40;;;14.60;99.90;;;;;;5136640;27;20465;-72
2021/05/12 11:46:42;;;;;;;4.97;2.73;;;14.50;99.90;;;;;;5136633;27;20450;-73
2021/05/12 11:49:12;;;;;;;5.20;3.47;;;14.40;99.90;;;;;;5135576;27;20442;-72
2021/05/12 11:51:41;;;;;;;6.27;3.67;;;14.30;99.90;;;;;;5136083;28;20759;-72
2021/05/12 11:54:15;;;;;;;4.53;3.53;;;14.30;99.90;;;;;;5131196;28;20732;-72
2021/05/12 11:56:45;;;;;;;11.10;4.00;;;14.30;99.90;;;;;;5115281;28;20442;-70
2021/05/12 11:59:31;;;;;;;7.33;3.33;;;14.50;99.90;;;;;;5114936;28;20529;-73
2021/05/12 12:02:10;;;;;;;9.43;5.30;;;14.70;99.90;;;;;;5113850;28;20466;-72
2021/05/12 12:04:52;;;;;;;6.00;3.50;;;14.50;99.90;;;;;;5114002;28;20462;-71
2021/05/12 12:07:37;;;;;;;9.23;3.40;;;14.10;99.90;;;;;;5115445;28;20447;-72
2021/05/12 12:10:09;;;;;;;7.73;3.33;;;14.00;99.90;;;;;;5131975;28;20469;-70
2021/05/12 12:12:59;;;;;;;6.60;3.57;;;13.70;99.90;;;;;;5138256;27;20454;-72
2021/05/12 12:15:39;;;;;;;14.63;8.03;;;13.80;99.90;;;;;;5138413;27;20450;-71
2021/05/12 12:18:11;;;;;;;6.60;3.10;;;13.90;99.90;;;;;;5139081;27;20496;-71
2021/05/12 12:20:48;;;;;;;4.40;2.93;;;13.90;99.90;;;;;;5140455;27;20902;-71
2021/05/12 12:23:30;;;;;;;7.53;3.70;;;13.90;99.90;;;;;;5139751;27;20519;-71
2021/05/12 12:26:19;;;;;;;6.10;3.20;;;14.10;99.90;;;;;;5139626;27;20825;-71
2021/05/12 12:28:56;;;;;;;5.57;2.83;;;14.10;99.90;;;;;;5132246;27;20846;-72
2021/05/12 12:31:56;;;;;;;4.90;2.87;;;14.60;99.90;;;;;;5118799;28;20789;-71
2021/05/12 12:34:34;;;;;;;4.63;3.17;;;14.60;99.90;;;;;;5126753;27;20886;-71
2021/05/12 12:37:06;;;;;;;5.87;2.80;;;15.00;99.90;;;;;;5137767;27;20478;-71
2021/05/12 12:39:46;;;;;;;5.10;2.20;;;15.10;99.90;;;;;;5129657;27;20493;-71
2021/05/12 12:42:17;;;;;;;4.40;1.97;;;15.00;99.90;;;;;;5117885;28;20454;-71
2021/05/12 12:44:48;;;;;;;3.60;2.57;;;14.90;99.90;;;;;;5116707;28;20832;-72
2021/05/12 12:47:21;;;;;;;4.53;2.80;;;15.20;99.90;;;;;;5118407;28;20454;-72
2021/05/12 12:49:55;;;;;;;3.43;2.87;;;15.10;99.90;;;;;;5138064;27;20542;-72
2021/05/12 12:52:29;;;;;;;8.03;3.13;;;15.20;99.90;;;;;;5138481;27;20446;-72
2021/05/12 12:55:07;;;;;;;6.27;3.23;;;14.90;99.90;;;;;;5139486;27;20547;-72
2021/05/12 12:57:40;;;;;;;4.50;2.67;;;15.10;99.90;;;;;;5138922;27;20462;-72
2021/05/12 13:00:23;;;;;;;6.10;3.40;;;15.10;99.90;;;;;;5138731;27;20442;-72
2021/05/12 13:03:13;;;;;;;5.93;3.77;;;15.20;99.90;;;;;;5138879;27;20454;-70
2021/05/12 13:05:47;;;;;;;6.73;3.70;;;15.20;99.90;;;;;;5137107;27;20454;-72
2021/05/12 13:08:21;;;;;;;7.87;4.17;;;15.10;99.90;;;;;;5137543;27;20853;-71
2021/05/12 13:10:49;;;;;;;8.00;4.33;;;15.00;99.90;;;;;;5137035;27;20788;-72
2021/05/12 13:13:33;;;;;;;5.93;3.57;;;15.00;99.90;;;;;;5137589;27;20949;-72
2021/05/12 13:16:18;;;;;;;7.37;4.40;;;14.90;99.90;;;;;;5138029;27;20450;-71
2021/05/12 13:18:57;;;;;;;6.27;4.77;;;14.80;99.90;;;;;;5138796;27;20482;-71
2021/05/12 13:21:27;;;;;;;10.87;6.27;;;14.70;99.90;;;;;;5138589;27;20450;-71
2021/05/12 13:24:05;;;;;;;7.00;4.67;;;14.80;99.90;;;;;;5138440;27;20528;-71
2021/05/12 13:26:40;;;;;;;6.13;4.07;;;14.90;99.90;;;;;;5133930;27;20881;-72
2021/05/12 13:29:27;;;;;;;6.17;3.97;;;14.80;99.90;;;;;;5133474;27;20537;-72
2021/05/12 13:32:06;;;;;;;8.93;4.20;;;14.80;99.90;;;;;;5130811;27;20450;-72
2021/05/12 13:34:49;;;;;;;6.83;4.30;;;14.80;99.90;;;;;;5126717;27;20443;-73
2021/05/12 13:37:23;;;;;;;7.10;4.47;;;14.90;99.90;;;;;;5117187;28;20462;-73
2021/05/12 13:39:52;;;;;;;9.97;4.63;;;14.90;99.90;;;;;;5129230;27;20472;-71
2021/05/12 13:42:20;;;;;;;10.60;5.20;;;14.90;99.90;;;;;;5132788;27;20457;-71
2021/05/12 13:44:55;;;;;;;8.53;4.53;;;14.90;99.90;;;;;;5136176;27;20465;-72
2021/05/12 13:47:46;;;;;;;9.17;4.20;;;14.80;99.90;;;;;;5137861;27;20580;-71
2021/05/12 13:50:35;;;;;;;10.40;5.30;;;14.80;99.90;;;;;;5136801;27;20433;-72
2021/05/12 13:53:14;;;;;;;9.37;4.73;;;14.80;99.90;;;;;;5137348;27;20797;-71
2021/05/12 13:55:54;;;;;;;7.57;4.40;;;14.80;99.90;;;;;;5137442;27;20431;-72
2021/05/12 14:04:04;;;;;;;9.30;4.47;;;14.80;99.90;;;;;;5137617;27;20433;-72
2021/05/12 14:06:34;;;;;;;8.87;4.30;;;14.90;99.90;;;;;;5137029;27;20770;-72
2021/05/12 14:09:14;;;;;;;7.73;4.33;;;14.90;99.90;;;;;;5137417;27;20449;-71
2021/05/12 14:12:01;;;;;;;6.10;3.10;;;14.90;99.90;;;;;;5137775;27;20547;-73
2021/05/12 14:14:47;;;;;;;16.70;4.60;;;15.00;99.90;;;;;;5136949;27;20458;-74
2021/05/12 14:17:21;;;;;;;9.13;4.10;;;15.10;99.90;;;;;;5137734;27;20450;-73
2021/05/12 14:19:52;;;;;;;7.40;4.00;;;15.10;99.90;;;;;;5137080;27;20581;-74
2021/05/12 14:25:17;;;;;;;5.37;2.90;;;15.10;99.90;;;;;;5119819;27;20458;-71
2021/05/12 14:27:52;;;;;;;5.87;2.90;;;15.00;99.90;;;;;;5136477;27;20789;-71
2021/05/12 14:30:21;;;;;;;7.63;3.20;;;14.90;99.90;;;;;;5137698;27;20465;-73
2021/05/12 14:32:50;;;;;;;6.93;2.93;;;15.00;99.90;;;;;;5137477;27;20937;-71
2021/05/12 14:35:18;;;;;;;7.43;3.57;;;14.90;99.90;;;;;;5135178;27;20464;-71
2021/05/12 14:38:05;;;;;;;5.40;2.60;;;14.70;99.90;;;;;;5132189;27;20753;-72
2021/05/12 14:40:32;;;;;;;8.80;3.53;;;14.90;99.90;;;;;;5120495;27;20810;-71
2021/05/12 14:43:04;;;;;;;7.13;3.40;;;14.70;99.90;;;;;;5128140;27;20443;-72
2021/05/12 14:45:38;;;;;;;6.23;3.87;;;14.60;99.90;;;;;;5136339;27;20804;-71
2021/05/12 14:48:09;;;;;;;7.10;3.10;;;14.60;99.90;;;;;;5134502;27;20946;-71
2021/05/12 14:50:52;;;;;;;7.20;3.67;;;14.60;99.90;;;;;;5133813;27;20438;-72